createdAt,value
2023-01-30T00:02:08.548Z,98087.00
2023-01-30T00:07:31.437Z,98097.00
2023-01-30T00:13:10.345Z,98081.00
2023-01-30T00:18:43.633Z,98101.00
2023-01-30T00:24:10.652Z,98077.00
2023-01-30T00:29:32.793Z,98074.00
2023-01-30T00:34:56.258Z,98062.00
2023-01-30T00:40:18.103Z,98059.00
2023-01-30T00:46:20.254Z,98055.00
2023-01-30T00:52:06.279Z,98045.00
2023-01-30T00:58:01.796Z,98041.00
2023-01-30T01:03:38.268Z,98041.00
2023-01-30T01:09:00.699Z,98042.00
2023-01-30T01:14:28.040Z,98018.00
2023-01-30T01:19:50.129Z,97993.00
2023-01-30T01:25:12.139Z,97981.00
2023-01-30T01:30:34.525Z,97962.00
2023-01-30T01:36:53.081Z,97962.00
2023-01-30T01:42:26.395Z,97939.00
2023-01-30T01:48:23.848Z,97923.00
2023-01-30T01:54:06.190Z,97888.00
2023-01-30T01:59:43.205Z,97860.00
2023-01-30T02:05:36.577Z,97862.00
2023-01-30T02:11:05.696Z,97860.00
2023-01-30T02:16:46.282Z,97840.00
2023-01-30T02:22:56.220Z,97831.00
2023-01-30T02:28:59.821Z,97843.00
2023-01-30T02:34:55.542Z,97823.00
2023-01-30T02:40:56.914Z,97839.00
2023-01-30T02:47:09.113Z,97833.00
2023-01-30T02:53:05.923Z,97838.00
2023-01-30T02:58:47.344Z,97836.00
2023-01-30T03:04:46.032Z,97811.00
2023-01-30T03:10:38.254Z,97797.00
2023-01-30T03:22:29.067Z,97760.00
2023-01-30T03:28:08.257Z,97723.00
2023-01-30T03:33:42.818Z,97723.00
2023-01-30T03:39:10.433Z,97716.00
2023-01-30T03:44:33.803Z,97712.00
2023-01-30T03:49:55.176Z,97717.00
2023-01-30T03:55:17.326Z,97702.00
2023-01-30T04:00:38.960Z,97699.00
2023-01-30T04:06:21.304Z,97701.00
2023-01-30T04:12:06.881Z,97693.00
2023-01-30T04:17:57.032Z,97695.00
2023-01-30T04:23:55.608Z,97696.00
2023-01-30T04:29:18.802Z,97681.00
2023-01-30T04:34:45.183Z,97656.00
2023-01-30T04:40:07.513Z,97659.00
2023-01-30T04:45:30.433Z,97646.00
2023-01-30T04:50:56.810Z,97633.00
2023-01-30T04:56:36.147Z,97616.00
2023-01-30T05:02:23.032Z,97615.00
2023-01-30T05:07:57.826Z,97621.00
2023-01-30T05:13:19.242Z,97591.00
2023-01-30T05:18:41.634Z,97578.00
2023-01-30T05:24:09.565Z,97559.00
2023-01-30T05:29:31.981Z,97537.00
2023-01-30T05:34:53.569Z,97528.00
2023-01-30T05:40:15.172Z,97515.00
2023-01-30T05:45:37.394Z,97558.00
2023-01-30T05:51:03.251Z,97532.00
2023-01-30T05:56:33.329Z,97497.00
2023-01-30T06:02:16.509Z,97488.00
2023-01-30T06:07:44.776Z,97491.00
2023-01-30T06:13:20.539Z,97473.00
2023-01-30T06:18:47.181Z,97473.00
2023-01-30T06:24:13.752Z,97476.00
2023-01-30T06:29:36.092Z,97483.00
2023-01-30T06:34:57.705Z,97473.00
2023-01-30T06:40:19.391Z,97480.00
2023-01-30T06:45:41.306Z,97484.00
2023-01-30T06:51:42.777Z,97487.00
2023-01-30T06:57:21.924Z,97478.00
2023-01-30T07:02:57.329Z,97473.00
2023-01-30T07:08:19.218Z,97478.00
2023-01-30T07:13:43.961Z,97453.00
2023-01-30T07:19:13.023Z,97451.00
2023-01-30T07:24:35.242Z,97466.00
2023-01-30T07:29:56.789Z,97486.00
2023-01-30T07:35:18.804Z,97451.00
2023-01-30T07:40:40.471Z,97458.00
2023-01-30T07:46:23.667Z,97463.00
2023-01-30T07:52:24.279Z,97453.00
2023-01-30T07:58:07.144Z,97455.00
2023-01-30T08:03:33.859Z,97458.00
2023-01-30T08:09:16.545Z,97473.00
2023-01-30T08:14:57.748Z,97456.00
2023-01-30T08:20:29.670Z,97441.00
2023-01-30T08:26:05.741Z,97447.00
2023-01-30T08:32:08.018Z,97476.00
2023-01-30T08:37:42.703Z,97477.00
2023-01-30T08:43:04.763Z,97479.00
2023-01-30T08:48:48.621Z,97446.00
2023-01-30T08:54:20.786Z,97427.00
2023-01-30T08:59:46.149Z,97441.00
2023-01-30T09:05:25.226Z,97446.00
2023-01-30T09:11:29.395Z,97455.00
2023-01-30T09:17:24.361Z,97465.00
2023-01-30T09:23:09.954Z,97465.00
2023-01-30T09:28:52.020Z,97473.00
2023-01-30T09:34:21.741Z,97439.00
2023-01-30T09:39:44.010Z,97424.00
2023-01-30T09:45:42.276Z,97442.00
2023-01-30T09:51:46.761Z,97450.00
2023-01-30T09:57:38.088Z,97452.00
2023-01-30T10:03:32.859Z,97438.00
2023-01-30T10:09:15.644Z,97437.00
2023-01-30T10:14:52.299Z,97446.00
2023-01-30T10:20:40.039Z,97444.00
2023-01-30T10:26:25.210Z,97456.00
2023-01-30T10:32:11.767Z,97436.00
2023-01-30T10:38:18.073Z,97436.00
2023-01-30T10:44:02.879Z,97431.00
2023-01-30T10:49:47.161Z,97423.00
2023-01-30T10:55:17.988Z,97430.00
2023-01-30T11:01:01.435Z,97439.00
2023-01-30T11:06:30.226Z,97436.00
2023-01-30T11:11:54.656Z,97428.00
2023-01-30T11:17:44.760Z,97427.00
2023-01-30T11:23:56.025Z,97426.00
2023-01-30T11:29:32.994Z,97422.00
2023-01-30T11:35:09.401Z,97414.00
2023-01-30T11:40:37.988Z,97421.00
2023-01-30T11:46:26.132Z,97427.00
2023-01-30T11:52:09.450Z,97417.00
2023-01-30T11:58:02.777Z,97415.00
2023-01-30T12:03:39.217Z,97410.00
2023-01-30T12:09:04.448Z,97409.00
2023-01-30T12:14:47.037Z,97399.00
2023-01-30T12:20:42.267Z,97403.00
2023-01-30T12:26:49.975Z,97383.00
2023-01-30T12:38:27.270Z,97366.00
2023-01-30T12:44:15.830Z,97366.00
2023-01-30T12:49:57.447Z,97358.00
2023-01-30T12:55:40.589Z,97338.00
2023-01-30T13:01:57.141Z,97337.00
2023-01-30T13:07:37.066Z,97344.00
2023-01-30T13:13:12.219Z,97356.00
2023-01-30T13:18:58.564Z,97354.00
2023-01-30T13:24:47.937Z,97351.00
2023-01-30T13:30:15.090Z,97365.00
2023-01-30T13:35:45.330Z,97367.00
2023-01-30T13:41:47.469Z,97354.00
2023-01-30T13:47:56.077Z,97352.00
2023-01-30T13:54:05.650Z,97365.00
2023-01-30T13:59:35.894Z,97368.00
2023-01-30T14:05:20.253Z,97358.00
2023-01-30T14:10:50.268Z,97372.00
2023-01-30T14:16:46.633Z,97372.00
2023-01-30T14:22:24.010Z,97381.00
2023-01-30T14:28:05.103Z,97371.00
2023-01-30T14:33:59.259Z,97385.00
2023-01-30T14:39:39.516Z,97377.00
2023-01-30T14:45:17.505Z,97373.00
2023-01-30T14:50:39.090Z,97388.00
2023-01-30T14:56:51.006Z,97376.00
2023-01-30T15:02:37.578Z,97385.00
2023-01-30T15:08:25.091Z,97389.00
2023-01-30T15:14:12.129Z,97384.00
2023-01-30T15:20:18.327Z,97385.00
2023-01-30T15:26:24.079Z,97408.00
2023-01-30T15:38:45.026Z,97405.00
2023-01-30T15:44:29.481Z,97430.00
2023-01-30T15:50:05.734Z,97452.00
2023-01-30T15:55:36.022Z,97455.00
2023-01-30T16:01:00.352Z,97461.00
2023-01-30T16:06:50.095Z,97490.00
2023-01-30T16:12:47.851Z,97499.00
2023-01-30T16:18:45.571Z,97520.00
2023-01-30T16:24:28.907Z,97524.00
2023-01-30T16:29:56.063Z,97504.00
2023-01-30T16:35:34.168Z,97513.00
2023-01-30T16:41:29.192Z,97512.00
2023-01-30T16:47:45.369Z,97517.00
2023-01-30T16:53:30.211Z,97519.00
2023-01-30T16:59:08.103Z,97550.00
2023-01-30T17:04:40.503Z,97555.00
2023-01-30T17:10:59.867Z,97571.00
2023-01-30T17:16:41.995Z,97558.00
2023-01-30T17:22:48.360Z,97570.00
2023-01-30T17:28:31.187Z,97586.00
2023-01-30T17:34:02.963Z,97597.00
2023-01-30T17:39:29.177Z,97594.00
2023-01-30T17:44:50.436Z,97609.00
2023-01-30T17:50:14.491Z,97612.00
2023-01-30T17:55:36.533Z,97623.00
2023-01-30T18:00:58.075Z,97630.00
2023-01-30T18:06:46.907Z,97650.00
2023-01-30T18:12:22.865Z,97659.00
2023-01-30T18:17:56.610Z,97660.00
2023-01-30T18:23:36.879Z,97676.00
2023-01-30T18:29:05.024Z,97693.00
2023-01-30T18:34:28.321Z,97679.00
2023-01-30T18:39:49.789Z,97700.00
2023-01-30T18:45:11.731Z,97718.00
2023-01-30T18:50:33.425Z,97721.00
2023-01-30T19:02:10.396Z,97728.00
2023-01-30T19:07:32.223Z,97737.00
2023-01-30T19:13:26.152Z,97760.00
2023-01-30T19:19:03.270Z,97757.00
2023-01-30T19:24:25.977Z,97780.00
2023-01-30T19:29:47.385Z,97794.00
2023-01-30T19:35:12.473Z,97812.00
2023-01-30T19:40:33.911Z,97812.00
2023-01-30T19:46:22.095Z,97824.00
2023-01-30T19:52:03.219Z,97833.00
2023-01-30T20:03:54.686Z,97844.00
2023-01-30T20:09:46.845Z,97857.00
2023-01-30T20:15:14.471Z,97877.00
2023-01-30T20:20:35.716Z,97898.00
2023-01-30T20:26:24.675Z,97902.00
2023-01-30T20:32:06.656Z,97891.00
2023-01-30T20:37:59.336Z,97908.00
2023-01-30T20:49:12.967Z,97909.00
2023-01-30T20:54:35.928Z,97896.00
2023-01-30T20:59:57.462Z,97904.00
2023-01-30T21:05:27.877Z,97919.00
2023-01-30T21:11:30.794Z,97910.00
2023-01-30T21:17:08.982Z,97922.00
2023-01-30T21:23:01.107Z,97933.00
2023-01-30T21:28:39.397Z,97947.00
2023-01-30T21:34:08.242Z,97957.00
2023-01-30T21:39:48.836Z,97958.00
2023-01-30T21:45:10.600Z,97986.00
2023-01-30T21:50:32.260Z,97977.00
2023-01-30T21:56:21.931Z,98014.00
2023-01-30T22:01:59.028Z,97992.00
2023-01-30T22:07:34.535Z,97989.00
2023-01-30T22:13:01.071Z,98003.00
2023-01-30T22:18:40.165Z,98018.00
2023-01-30T22:24:12.168Z,98036.00
2023-01-30T22:29:35.341Z,98063.00
2023-01-30T22:34:56.696Z,98084.00
2023-01-30T22:40:18.494Z,98075.00
2023-01-30T22:45:39.742Z,98058.00
2023-01-30T22:51:49.538Z,98078.00
2023-01-30T22:57:29.448Z,98080.00
2023-01-30T23:03:09.926Z,98080.00
2023-01-30T23:09:01.224Z,98084.00
2023-01-30T23:14:23.127Z,98071.00
2023-01-30T23:19:44.637Z,98084.00
2023-01-30T23:25:06.318Z,98070.00
2023-01-30T23:30:27.876Z,98075.00
2023-01-30T23:36:05.677Z,98083.00
2023-01-30T23:41:46.295Z,98078.00
2023-01-30T23:53:02.789Z,98086.00
2023-01-30T23:58:38.698Z,98084.00
